createdAt,value
2023-05-10T00:01:56.143Z,10.00
2023-05-10T00:04:28.784Z,9.90
2023-05-10T00:06:57.442Z,9.90
2023-05-10T00:09:26.025Z,9.90
2023-05-10T00:11:54.431Z,9.90
2023-05-10T00:14:22.892Z,9.80
2023-05-10T00:16:52.707Z,9.80
2023-05-10T00:19:21.118Z,9.80
2023-05-10T00:21:49.510Z,9.70
2023-05-10T00:24:17.901Z,9.70
2023-05-10T00:26:46.430Z,9.70
2023-05-10T00:29:15.885Z,9.70
2023-05-10T00:31:44.312Z,9.60
2023-05-10T00:34:14.187Z,9.60
2023-05-10T00:36:42.661Z,9.60
2023-05-10T00:39:11.087Z,9.60
2023-05-10T00:41:40.907Z,9.50
2023-05-10T00:44:09.683Z,9.50
2023-05-10T00:46:38.115Z,9.50
2023-05-10T00:49:06.604Z,9.50
2023-05-10T00:51:37.763Z,9.40
2023-05-10T00:54:07.749Z,9.40
2023-05-10T00:56:36.643Z,9.30
2023-05-10T00:59:05.067Z,9.30
2023-05-10T01:01:34.328Z,9.30
2023-05-10T01:04:04.108Z,9.30
2023-05-10T01:06:33.434Z,9.20
2023-05-10T01:09:03.150Z,9.20
2023-05-10T01:11:31.769Z,9.30
2023-05-10T01:14:00.655Z,9.20
2023-05-10T01:16:31.446Z,9.20
2023-05-10T01:19:00.201Z,9.20
2023-05-10T01:21:40.297Z,9.20
2023-05-10T01:24:47.805Z,9.20
2023-05-10T01:27:51.367Z,9.10
2023-05-10T01:31:01.305Z,9.10
2023-05-10T01:33:37.487Z,9.10
2023-05-10T01:36:11.300Z,9.10
2023-05-10T01:38:51.338Z,9.10
2023-05-10T01:41:23.898Z,9.10
2023-05-10T01:43:59.396Z,9.10
2023-05-10T01:46:35.650Z,9.10
2023-05-10T01:49:10.023Z,9.10
2023-05-10T01:51:44.312Z,9.00
2023-05-10T01:54:15.374Z,9.10
2023-05-10T01:56:46.139Z,9.00
2023-05-10T01:59:17.810Z,9.10
2023-05-10T02:01:48.803Z,9.10
2023-05-10T02:04:21.713Z,9.10
2023-05-10T02:06:50.844Z,9.10
2023-05-10T02:09:21.707Z,9.10
2023-05-10T02:11:52.392Z,9.10
2023-05-10T02:14:21.915Z,9.10
2023-05-10T02:16:53.152Z,9.00
2023-05-10T02:19:24.277Z,9.00
2023-05-10T02:21:53.853Z,9.00
2023-05-10T02:24:24.700Z,8.90
2023-05-10T02:26:56.735Z,8.90
2023-05-10T02:29:26.828Z,8.80
2023-05-10T02:31:57.913Z,8.80
2023-05-10T02:34:28.940Z,8.70
2023-05-10T02:36:58.935Z,8.70
2023-05-10T02:39:30.550Z,8.70
2023-05-10T02:41:59.697Z,8.70
2023-05-10T02:44:32.254Z,8.70
2023-05-10T02:47:01.041Z,8.70
2023-05-10T02:49:32.777Z,8.70
2023-05-10T02:52:06.845Z,8.70
2023-05-10T02:54:45.971Z,8.70
2023-05-10T02:57:20.412Z,8.70
2023-05-10T02:59:48.949Z,8.70
2023-05-10T03:02:17.537Z,8.70
2023-05-10T03:04:47.522Z,8.70
2023-05-10T03:07:16.316Z,8.70
2023-05-10T03:09:46.240Z,8.70
2023-05-10T03:12:23.662Z,8.60
2023-05-10T03:15:06.031Z,8.60
2023-05-10T03:17:43.427Z,8.60
2023-05-10T03:20:18.874Z,8.60
2023-05-10T03:22:52.169Z,8.70
2023-05-10T03:25:23.111Z,8.70
2023-05-10T03:27:55.387Z,8.70
2023-05-10T03:30:26.288Z,8.70
2023-05-10T03:32:55.302Z,8.70
2023-05-10T03:35:26.484Z,8.70
2023-05-10T03:37:55.102Z,8.70
2023-05-10T03:40:24.133Z,8.70
2023-05-10T03:42:52.534Z,8.80
2023-05-10T03:45:21.135Z,8.80
2023-05-10T03:47:49.618Z,8.80
2023-05-10T03:50:18.511Z,8.80
2023-05-10T03:52:48.882Z,8.80
2023-05-10T03:55:17.414Z,8.80
2023-05-10T03:57:46.591Z,8.90
2023-05-10T04:00:16.161Z,8.90
2023-05-10T04:02:46.249Z,8.90
2023-05-10T04:05:20.757Z,8.90
2023-05-10T04:07:52.171Z,9.00
2023-05-10T04:10:20.817Z,9.00
2023-05-10T04:12:49.229Z,9.00
2023-05-10T04:15:17.783Z,9.10
2023-05-10T04:17:46.272Z,9.10
2023-05-10T04:20:15.584Z,9.10
2023-05-10T04:22:44.545Z,9.20
2023-05-10T04:25:14.475Z,9.20
2023-05-10T04:27:43.076Z,9.30
2023-05-10T04:30:12.266Z,9.30
2023-05-10T04:32:40.815Z,9.30
2023-05-10T04:35:11.221Z,9.40
2023-05-10T04:37:39.711Z,9.50
2023-05-10T04:40:09.127Z,9.50
2023-05-10T04:42:38.806Z,9.60
2023-05-10T04:45:08.183Z,9.70
2023-05-10T04:47:38.249Z,9.80
2023-05-10T04:50:07.640Z,9.90
2023-05-10T04:52:36.064Z,10.10
2023-05-10T04:55:04.573Z,10.30
2023-05-10T04:57:33.074Z,10.60
2023-05-10T05:00:04.042Z,10.80
2023-05-10T05:02:32.739Z,10.90
2023-05-10T05:05:01.261Z,11.10
2023-05-10T05:07:32.589Z,11.20
2023-05-10T05:10:04.208Z,11.30
2023-05-10T05:12:32.831Z,11.50
2023-05-10T05:15:01.283Z,11.70
2023-05-10T05:17:32.663Z,12.00
2023-05-10T05:20:01.083Z,12.50
2023-05-10T05:22:29.513Z,13.00
2023-05-10T05:24:59.248Z,13.50
2023-05-10T05:27:28.939Z,13.90
2023-05-10T05:29:57.923Z,14.30
2023-05-10T05:32:27.384Z,14.80
2023-05-10T05:34:57.061Z,15.20
2023-05-10T05:37:25.637Z,15.60
2023-05-10T05:39:55.733Z,15.90
2023-05-10T05:42:24.251Z,16.30
2023-05-10T05:44:52.668Z,16.60
2023-05-10T05:47:21.072Z,16.90
2023-05-10T05:49:49.566Z,17.20
2023-05-10T05:52:19.380Z,17.50
2023-05-10T05:54:47.877Z,17.80
2023-05-10T05:57:16.262Z,18.00
2023-05-10T05:59:45.064Z,18.20
2023-05-10T06:02:13.787Z,18.40
2023-05-10T06:04:44.655Z,18.60
2023-05-10T06:07:13.465Z,18.80
2023-05-10T06:09:43.134Z,19.00
2023-05-10T06:12:12.701Z,19.10
2023-05-10T06:14:41.075Z,19.30
2023-05-10T06:17:09.418Z,19.40
2023-05-10T06:19:37.880Z,19.60
2023-05-10T06:22:06.307Z,19.70
2023-05-10T06:24:34.697Z,19.90
2023-05-10T06:27:05.419Z,20.00
2023-05-10T06:29:33.804Z,20.20
2023-05-10T06:32:02.292Z,20.30
2023-05-10T06:34:30.768Z,20.40
2023-05-10T06:36:59.247Z,20.60
2023-05-10T06:39:27.791Z,20.70
2023-05-10T06:41:56.557Z,20.80
2023-05-10T06:44:26.234Z,20.90
2023-05-10T06:46:56.516Z,21.10
2023-05-10T06:49:25.009Z,21.40
2023-05-10T06:51:53.434Z,21.60
2023-05-10T06:54:22.049Z,21.70
2023-05-10T06:56:50.407Z,22.00
2023-05-10T06:59:20.320Z,22.20
2023-05-10T07:01:50.278Z,22.20
2023-05-10T07:04:19.227Z,22.30
2023-05-10T07:06:47.737Z,22.20
2023-05-10T07:09:16.106Z,22.00
2023-05-10T07:11:44.476Z,21.80
2023-05-10T07:14:13.012Z,21.60
2023-05-10T07:16:41.782Z,21.60
2023-05-10T07:19:11.526Z,21.80
2023-05-10T07:21:41.470Z,22.00
2023-05-10T07:24:09.865Z,22.20
2023-05-10T07:26:38.336Z,22.40
2023-05-10T07:29:06.890Z,22.60
2023-05-10T07:31:35.436Z,22.80
2023-05-10T07:34:03.885Z,22.80
2023-05-10T07:36:33.741Z,23.00
2023-05-10T07:39:02.338Z,23.30
2023-05-10T07:41:31.012Z,23.30
2023-05-10T07:43:59.550Z,23.30
2023-05-10T07:46:28.553Z,23.00
2023-05-10T07:48:57.084Z,22.80
2023-05-10T07:51:25.500Z,22.50
2023-05-10T07:53:55.611Z,22.10
2023-05-10T07:56:28.218Z,21.80
2023-05-10T07:58:57.110Z,21.30
2023-05-10T08:01:25.710Z,20.90
2023-05-10T08:03:54.628Z,20.50
2023-05-10T08:06:23.263Z,20.20
2023-05-10T08:08:52.586Z,19.80
2023-05-10T08:11:22.830Z,19.50
2023-05-10T08:13:52.874Z,19.40
2023-05-10T08:16:21.625Z,19.30
2023-05-10T08:18:51.725Z,19.30
2023-05-10T08:21:20.271Z,19.40
2023-05-10T08:23:48.683Z,19.50
2023-05-10T08:26:17.264Z,19.60
2023-05-10T08:28:46.982Z,19.60
2023-05-10T08:31:15.371Z,19.60
2023-05-10T08:33:44.588Z,19.60
2023-05-10T08:36:15.259Z,19.60
2023-05-10T08:38:43.760Z,19.50
2023-05-10T08:41:13.240Z,19.50
2023-05-10T08:43:42.948Z,19.60
2023-05-10T08:46:13.322Z,19.70
2023-05-10T08:48:42.283Z,19.70
2023-05-10T08:51:11.771Z,19.90
2023-05-10T08:53:40.887Z,20.20
2023-05-10T08:56:10.764Z,20.50
2023-05-10T08:58:39.606Z,20.60
2023-05-10T09:01:08.624Z,20.70
2023-05-10T09:03:41.131Z,20.80
2023-05-10T09:06:10.044Z,20.80
2023-05-10T09:08:39.743Z,20.80
2023-05-10T09:11:08.826Z,20.60
2023-05-10T09:13:38.663Z,20.50
2023-05-10T09:16:20.366Z,20.30
2023-05-10T09:18:52.233Z,20.20
2023-05-10T09:21:22.384Z,20.20
2023-05-10T09:23:52.034Z,20.20
2023-05-10T09:26:25.068Z,20.40
2023-05-10T09:28:54.572Z,20.40
2023-05-10T09:31:23.216Z,20.20
2023-05-10T09:33:54.125Z,20.10
2023-05-10T09:36:22.611Z,20.00
2023-05-10T09:38:53.004Z,19.90
2023-05-10T09:41:22.561Z,19.80
2023-05-10T09:43:52.462Z,19.70
2023-05-10T09:46:20.912Z,19.70
2023-05-10T09:48:50.010Z,19.80
2023-05-10T09:51:23.593Z,19.90
2023-05-10T09:54:11.802Z,20.00
2023-05-10T09:56:41.746Z,20.00
2023-05-10T09:59:14.134Z,19.90
2023-05-10T10:01:43.617Z,19.90
2023-05-10T10:04:12.962Z,20.00
2023-05-10T10:06:43.197Z,20.10
2023-05-10T10:09:12.247Z,20.30
2023-05-10T10:11:42.458Z,20.40
2023-05-10T10:14:11.359Z,20.50
2023-05-10T10:16:48.458Z,20.40
2023-05-10T10:19:24.557Z,20.50
2023-05-10T10:21:54.279Z,20.70
2023-05-10T10:24:22.734Z,20.70
2023-05-10T10:26:54.780Z,21.00
2023-05-10T10:29:28.185Z,21.40
2023-05-10T10:32:05.628Z,21.80
2023-05-10T10:34:34.471Z,22.20
2023-05-10T10:37:08.028Z,22.60
2023-05-10T10:39:37.988Z,23.00
2023-05-10T10:42:07.508Z,23.20
2023-05-10T10:44:39.255Z,23.30
2023-05-10T10:47:30.290Z,23.50
2023-05-10T10:50:09.248Z,23.70
2023-05-10T10:52:39.983Z,23.80
2023-05-10T10:55:10.436Z,23.70
2023-05-10T10:57:53.514Z,23.60
2023-05-10T11:00:27.754Z,23.70
2023-05-10T11:02:59.470Z,23.80
2023-05-10T11:05:40.301Z,23.80
2023-05-10T11:08:18.503Z,23.90
2023-05-10T11:10:56.175Z,23.70
2023-05-10T11:13:31.862Z,23.40
2023-05-10T11:16:01.886Z,23.10
2023-05-10T11:18:32.155Z,23.00
2023-05-10T11:21:04.016Z,23.00
2023-05-10T11:23:35.222Z,23.10
2023-05-10T11:26:03.766Z,23.30
2023-05-10T11:28:32.474Z,23.50
2023-05-10T11:31:01.131Z,23.80
2023-05-10T11:33:30.024Z,24.10
2023-05-10T11:35:58.424Z,24.40
2023-05-10T11:38:26.845Z,24.50
2023-05-10T11:40:56.620Z,24.70
2023-05-10T11:43:31.413Z,24.90
2023-05-10T11:45:59.882Z,25.10
2023-05-10T11:48:29.460Z,25.10
2023-05-10T11:50:59.085Z,25.00
2023-05-10T11:53:29.269Z,25.20
2023-05-10T11:56:05.581Z,25.40
2023-05-10T11:58:34.433Z,25.60
2023-05-10T12:01:03.619Z,25.80
2023-05-10T12:03:33.404Z,25.90
2023-05-10T12:06:03.632Z,26.00
2023-05-10T12:08:32.915Z,25.90
2023-05-10T12:11:11.455Z,25.40
2023-05-10T12:13:42.094Z,25.10
2023-05-10T12:16:18.097Z,25.00
2023-05-10T12:18:46.885Z,24.90
2023-05-10T12:21:15.531Z,24.70
2023-05-10T12:23:44.091Z,24.60
2023-05-10T12:26:14.042Z,24.70
2023-05-10T12:28:42.452Z,24.90
2023-05-10T12:31:11.821Z,25.10
2023-05-10T12:33:42.743Z,25.20
2023-05-10T12:36:11.887Z,25.20
2023-05-10T12:38:44.132Z,25.10
2023-05-10T12:41:15.645Z,25.20
2023-05-10T12:43:44.034Z,25.30
2023-05-10T12:46:14.218Z,25.40
2023-05-10T12:48:44.012Z,25.60
2023-05-10T12:51:13.945Z,25.80
2023-05-10T12:53:45.114Z,25.90
2023-05-10T12:56:15.948Z,26.10
2023-05-10T12:58:48.913Z,26.30
2023-05-10T13:01:17.466Z,26.30
2023-05-10T13:03:46.265Z,26.10
2023-05-10T13:06:15.966Z,25.90
2023-05-10T13:08:44.282Z,25.60
2023-05-10T13:11:12.714Z,25.40
2023-05-10T13:13:42.394Z,25.30
2023-05-10T13:16:10.822Z,25.20
2023-05-10T13:18:39.369Z,25.10
2023-05-10T13:21:08.540Z,25.20
2023-05-10T13:23:36.965Z,25.10
2023-05-10T13:26:05.460Z,25.10
2023-05-10T13:28:33.918Z,25.10
2023-05-10T13:31:03.624Z,25.20
2023-05-10T13:33:31.928Z,25.40
2023-05-10T13:36:00.302Z,25.60
2023-05-10T13:38:28.637Z,25.70
2023-05-10T13:40:56.931Z,25.60
2023-05-10T13:43:26.389Z,25.50
2023-05-10T13:45:54.757Z,25.40
2023-05-10T13:48:24.615Z,25.40
2023-05-10T13:50:52.920Z,25.30
2023-05-10T13:53:21.995Z,25.20
2023-05-10T13:55:50.607Z,24.90
2023-05-10T13:58:19.010Z,24.60
2023-05-10T14:00:47.350Z,24.20
2023-05-10T14:03:15.806Z,23.90
2023-05-10T14:05:46.060Z,23.50
2023-05-10T14:08:15.673Z,23.30
2023-05-10T14:10:44.057Z,23.20
2023-05-10T14:13:13.222Z,23.10
2023-05-10T14:15:41.676Z,23.00
2023-05-10T14:18:10.046Z,23.00
2023-05-10T14:20:38.386Z,22.90
2023-05-10T14:23:10.354Z,22.80
2023-05-10T14:25:40.502Z,22.70
2023-05-10T14:28:08.984Z,22.60
2023-05-10T14:30:37.556Z,22.50
2023-05-10T14:33:05.989Z,22.40
2023-05-10T14:35:34.516Z,22.30
2023-05-10T14:38:04.494Z,22.20
2023-05-10T14:40:34.527Z,22.10
2023-05-10T14:43:02.884Z,22.00
2023-05-10T14:45:31.450Z,22.00
2023-05-10T14:48:00.194Z,21.90
2023-05-10T14:53:00.313Z,21.80
2023-05-10T14:55:28.835Z,21.80
2023-05-10T14:57:59.303Z,21.70
2023-05-10T15:00:28.612Z,21.60
2023-05-10T15:02:57.697Z,21.50
2023-05-10T15:05:26.692Z,21.40
2023-05-10T15:07:56.149Z,21.30
2023-05-10T15:10:24.500Z,21.20
2023-05-10T15:12:53.017Z,21.20
2023-05-10T15:15:22.645Z,21.10
2023-05-10T15:17:51.060Z,21.00
2023-05-10T15:20:19.566Z,20.90
2023-05-10T15:22:47.875Z,20.90
2023-05-10T15:25:17.162Z,20.80
2023-05-10T15:27:45.889Z,20.80
2023-05-10T15:30:14.919Z,20.70
2023-05-10T15:32:44.629Z,20.60
2023-05-10T15:35:13.276Z,20.50
2023-05-10T15:37:41.734Z,20.50
2023-05-10T15:40:10.706Z,20.40
2023-05-10T15:42:39.067Z,20.30
2023-05-10T15:45:08.152Z,20.30
2023-05-10T15:47:37.209Z,20.20
2023-05-10T15:50:07.747Z,20.10
2023-05-10T15:52:36.351Z,20.10
2023-05-10T15:55:05.296Z,20.10
2023-05-10T15:57:34.995Z,20.00
2023-05-10T16:00:05.854Z,20.00
2023-05-10T16:02:40.776Z,19.90
2023-05-10T16:05:11.482Z,19.80
2023-05-10T16:07:40.317Z,19.80
2023-05-10T16:10:10.890Z,19.70
2023-05-10T16:12:40.533Z,19.70
2023-05-10T16:15:10.041Z,19.60
2023-05-10T16:17:38.521Z,19.60
2023-05-10T16:20:08.069Z,19.60
2023-05-10T16:22:37.842Z,19.60
2023-05-10T16:25:06.958Z,19.50
2023-05-10T16:27:35.395Z,19.50
2023-05-10T16:30:04.179Z,19.40
2023-05-10T16:32:32.738Z,19.40
2023-05-10T16:35:01.224Z,19.40
2023-05-10T16:37:29.752Z,19.30
2023-05-10T16:40:00.420Z,19.30
2023-05-10T16:42:29.431Z,19.30
2023-05-10T16:44:58.010Z,19.20
2023-05-10T16:47:27.478Z,19.20
2023-05-10T16:49:56.261Z,19.10
2023-05-10T16:52:24.761Z,19.10
2023-05-10T16:54:55.412Z,19.10
2023-05-10T16:57:25.221Z,19.10
2023-05-10T16:59:54.639Z,19.00
2023-05-10T17:02:23.342Z,19.00
2023-05-10T17:04:53.224Z,18.90
2023-05-10T17:07:22.660Z,18.80
2023-05-10T17:09:52.747Z,18.80
2023-05-10T17:12:21.340Z,18.70
2023-05-10T17:14:51.027Z,18.60
2023-05-10T17:17:19.492Z,18.50
2023-05-10T17:19:48.014Z,18.40
2023-05-10T17:22:16.546Z,18.30
2023-05-10T17:24:47.431Z,18.20
2023-05-10T17:27:16.463Z,18.10
2023-05-10T17:29:45.037Z,18.00
2023-05-10T17:32:14.801Z,17.90
2023-05-10T17:34:43.321Z,17.80
2023-05-10T17:37:12.188Z,17.70
2023-05-10T17:39:40.521Z,17.60
2023-05-10T17:42:09.000Z,17.50
2023-05-10T17:44:37.526Z,17.40
2023-05-10T17:47:06.478Z,17.30
2023-05-10T17:49:36.237Z,17.20
2023-05-10T17:52:04.825Z,17.10
2023-05-10T17:54:33.309Z,17.00
2023-05-10T17:57:02.191Z,16.90
2023-05-10T17:59:30.743Z,16.80
2023-05-10T18:01:59.040Z,16.70
2023-05-10T18:04:27.650Z,16.70
2023-05-10T18:07:01.516Z,16.50
2023-05-10T18:09:30.489Z,16.40
2023-05-10T18:11:58.892Z,16.30
2023-05-10T18:14:40.091Z,16.20
2023-05-10T18:17:09.678Z,16.10
2023-05-10T18:19:38.419Z,16.00
2023-05-10T18:22:10.625Z,15.90
2023-05-10T18:24:42.492Z,15.80
2023-05-10T18:27:11.390Z,15.70
2023-05-10T18:29:40.271Z,15.60
2023-05-10T18:32:08.672Z,15.50
2023-05-10T18:34:37.255Z,15.50
2023-05-10T18:37:08.026Z,15.40
2023-05-10T18:39:37.707Z,15.30
2023-05-10T18:42:06.779Z,15.20
2023-05-10T18:44:35.380Z,15.10
2023-05-10T18:47:03.870Z,15.00
2023-05-10T18:49:32.431Z,15.00
2023-05-10T18:52:00.787Z,14.90
2023-05-10T18:54:31.041Z,14.80
2023-05-10T18:56:59.720Z,14.70
2023-05-10T18:59:29.031Z,14.60
2023-05-10T19:01:57.860Z,14.50
2023-05-10T19:04:26.408Z,14.40
2023-05-10T19:06:56.060Z,14.40
2023-05-10T19:09:24.591Z,14.30
2023-05-10T19:11:54.317Z,14.20
2023-05-10T19:14:23.038Z,14.20
2023-05-10T19:16:53.562Z,14.10
2023-05-10T19:19:23.307Z,14.00
2023-05-10T19:21:52.188Z,13.90
2023-05-10T19:24:25.004Z,13.90
2023-05-10T19:26:56.242Z,13.80
2023-05-10T19:29:25.875Z,13.80
2023-05-10T19:31:55.023Z,13.70
2023-05-10T19:34:23.723Z,13.70
2023-05-10T19:36:52.238Z,13.60
2023-05-10T19:39:20.729Z,13.60
2023-05-10T19:41:50.014Z,13.50
2023-05-10T19:44:19.750Z,13.50
2023-05-10T19:46:48.278Z,13.50
2023-05-10T19:49:17.230Z,13.40
2023-05-10T19:51:45.959Z,13.40
2023-05-10T19:54:14.390Z,13.40
2023-05-10T19:56:42.840Z,13.30
2023-05-10T19:59:11.667Z,13.30
2023-05-10T20:01:41.432Z,13.30
2023-05-10T20:04:10.223Z,13.30
2023-05-10T20:06:38.674Z,13.30
2023-05-10T20:09:07.279Z,13.30
2023-05-10T20:11:35.760Z,13.20
2023-05-10T20:14:04.661Z,13.20
2023-05-10T20:16:33.598Z,13.20
2023-05-10T20:19:03.379Z,13.20
2023-05-10T20:21:33.642Z,13.10
2023-05-10T20:24:02.008Z,13.10
2023-05-10T20:26:30.439Z,13.00
2023-05-10T20:28:58.869Z,12.90
2023-05-10T20:31:27.377Z,12.90
2023-05-10T20:33:55.741Z,12.80
2023-05-10T20:36:25.454Z,12.80
2023-05-10T20:38:53.801Z,12.70
2023-05-10T20:41:22.433Z,12.70
2023-05-10T20:43:50.770Z,12.60
2023-05-10T20:46:19.302Z,12.50
2023-05-10T20:48:47.696Z,12.50
2023-05-10T20:51:16.180Z,12.50
2023-05-10T20:53:45.974Z,12.50
2023-05-10T20:56:14.387Z,12.40
2023-05-10T20:58:43.016Z,12.40
2023-05-10T21:01:11.963Z,12.40
2023-05-10T21:03:40.518Z,12.30
2023-05-10T21:06:08.997Z,12.30
2023-05-10T21:08:37.323Z,12.30
2023-05-10T21:11:07.282Z,12.20
2023-05-10T21:13:35.641Z,12.20
2023-05-10T21:16:04.080Z,12.20
2023-05-10T21:18:32.560Z,12.20
2023-05-10T21:21:00.954Z,12.10
2023-05-10T21:23:29.303Z,12.10
2023-05-10T21:25:57.690Z,12.10
2023-05-10T21:28:27.333Z,12.00
2023-05-10T21:30:55.944Z,12.00
2023-05-10T21:33:24.401Z,12.00
2023-05-10T21:35:52.736Z,12.00
2023-05-10T21:38:21.192Z,12.00
2023-05-10T21:40:49.611Z,11.90
2023-05-10T21:43:17.997Z,11.90
2023-05-10T21:45:47.781Z,11.90
2023-05-10T21:48:16.283Z,11.90
2023-05-10T21:50:44.960Z,11.90
2023-05-10T21:53:13.415Z,11.90
2023-05-10T21:55:42.051Z,11.90
2023-05-10T21:58:11.075Z,11.80
2023-05-10T22:00:39.415Z,11.80
2023-05-10T22:03:09.348Z,11.80
2023-05-10T22:05:37.840Z,11.80
2023-05-10T22:08:06.552Z,11.80
2023-05-10T22:10:35.321Z,11.90
2023-05-10T22:13:03.781Z,11.90
2023-05-10T22:15:36.401Z,11.90
2023-05-10T22:18:05.625Z,11.90
2023-05-10T22:20:35.526Z,11.90
2023-05-10T22:23:04.097Z,11.90
2023-05-10T22:25:32.488Z,12.00
2023-05-10T22:28:00.889Z,12.00
2023-05-10T22:30:31.558Z,12.00
2023-05-10T22:33:01.639Z,12.00
2023-05-10T22:35:30.161Z,12.00
2023-05-10T22:37:59.839Z,12.10
2023-05-10T22:40:28.395Z,12.10
2023-05-10T22:42:56.899Z,12.10
2023-05-10T22:45:25.345Z,12.10
2023-05-10T22:47:53.887Z,12.10
2023-05-10T22:50:22.828Z,12.10
2023-05-10T22:52:51.219Z,12.20
2023-05-10T22:55:21.024Z,12.20
2023-05-10T22:57:49.460Z,12.20
2023-05-10T23:00:18.748Z,12.20
2023-05-10T23:02:47.452Z,12.20
2023-05-10T23:05:15.945Z,12.30
2023-05-10T23:07:44.390Z,12.30
2023-05-10T23:10:12.992Z,12.30
2023-05-10T23:12:42.823Z,12.30
2023-05-10T23:15:11.904Z,12.30
2023-05-10T23:17:40.380Z,12.30
2023-05-10T23:20:10.151Z,12.30
2023-05-10T23:22:38.742Z,12.40
2023-05-10T23:25:08.053Z,12.40
2023-05-10T23:27:36.472Z,12.40
2023-05-10T23:30:07.302Z,12.40
2023-05-10T23:32:35.905Z,12.40
2023-05-10T23:35:04.842Z,12.40
2023-05-10T23:37:33.318Z,12.40
2023-05-10T23:40:02.009Z,12.40
2023-05-10T23:42:30.436Z,12.40
2023-05-10T23:44:58.986Z,12.40
2023-05-10T23:47:28.734Z,12.40
2023-05-10T23:49:57.190Z,12.50
2023-05-10T23:52:26.036Z,12.50
2023-05-10T23:54:55.074Z,12.50
2023-05-10T23:57:23.365Z,12.50
2023-05-10T23:59:51.734Z,12.50
